Time;durP1;ratioP1;P1;durP2;ratioP2;P2;SDS_P1;SDS_P2;PMS_P1;PMS_P2;Temp;Humidity;BMP_temperature;BMP_pressure;BME280_temperature;BME280_humidity;BME280_pressure;Samples;Min_cycle;Max_cycle;Signal;HPM_P1;HPM_P2
2024/02/17 00:02:25;;;;;;;25.55;7.07;;;;;;;;;;5045385;28;20396;-66
2024/02/17 00:04:51;;;;;;;26.55;9.32;;;;;;;;;;5046303;28;20049;-66
2024/02/17 00:07:17;;;;;;;18.63;7.72;;;;;;;;;;5025809;28;20521;-67
2024/02/17 00:09:44;;;;;;;23.30;6.90;;;;;;;;;;5039529;28;20045;-67
2024/02/17 00:12:11;;;;;;;21.20;6.90;;;;;;;;;;5019861;28;20056;-66
2024/02/17 00:14:37;;;;;;;19.42;8.00;;;;;;;;;;5046625;28;20065;-67
2024/02/17 00:17:04;;;;;;;18.55;7.15;;;;;;;;;;5041605;28;20037;-67
2024/02/17 00:19:31;;;;;;;25.45;8.20;;;;;;;;;;5025628;28;20118;-67
2024/02/17 00:21:57;;;;;;;26.67;7.68;;;;;;;;;;5021226;28;20677;-66
2024/02/17 00:24:24;;;;;;;23.65;7.63;;;;;;;;;;5024824;28;20053;-67
2024/02/17 00:26:50;;;;;;;19.67;7.38;;;;;;;;;;5036649;28;20061;-67
2024/02/17 00:29:17;;;;;;;23.27;7.93;;;;;;;;;;5021160;28;20048;-66
2024/02/17 00:31:44;;;;;;;24.65;9.55;;;;;;;;;;5021512;28;20077;-66
2024/02/17 00:34:11;;;;;;;33.13;9.52;;;;;;;;;;5022414;28;20939;-66
2024/02/17 00:36:37;;;;;;;34.95;9.95;;;;;;;;;;5029936;28;20049;-66
2024/02/17 00:39:04;;;;;;;30.13;11.25;;;;;;;;;;5033122;28;20139;-67
2024/02/17 00:41:30;;;;;;;24.63;9.32;;;;;;;;;;5033135;28;20049;-66
2024/02/17 00:43:57;;;;;;;23.42;9.13;;;;;;;;;;5035641;28;20425;-67
2024/02/17 00:46:23;;;;;;;24.40;9.65;;;;;;;;;;5020098;28;20670;-67
2024/02/17 00:48:49;;;;;;;30.58;9.00;;;;;;;;;;5030200;28;20120;-67
2024/02/17 00:51:15;;;;;;;24.92;9.93;;;;;;;;;;5021448;28;20053;-66
2024/02/17 00:53:42;;;;;;;31.02;9.57;;;;;;;;;;5021159;28;20041;-66
2024/02/17 00:56:09;;;;;;;23.35;8.95;;;;;;;;;;5018311;28;20080;-66
2024/02/17 00:58:35;;;;;;;27.67;8.65;;;;;;;;;;5017500;28;20041;-66
2024/02/17 01:01:02;;;;;;;24.17;8.98;;;;;;;;;;5022563;28;20044;-66
2024/02/17 01:03:28;;;;;;;25.50;8.23;;;;;;;;;;5017760;28;20061;-67
2024/02/17 01:05:55;;;;;;;22.38;8.50;;;;;;;;;;5020055;28;20067;-67
2024/02/17 01:08:21;;;;;;;22.65;8.40;;;;;;;;;;5019569;28;20049;-66
2024/02/17 01:10:47;;;;;;;26.13;8.27;;;;;;;;;;5018661;28;20058;-66
2024/02/17 01:13:13;;;;;;;22.75;9.50;;;;;;;;;;5015188;28;20130;-66
2024/02/17 01:15:39;;;;;;;29.55;9.10;;;;;;;;;;5016024;28;20077;-66
2024/02/17 01:18:06;;;;;;;28.08;9.00;;;;;;;;;;5018865;28;20068;-67
2024/02/17 01:20:32;;;;;;;28.50;8.50;;;;;;;;;;5019912;28;20785;-66
2024/02/17 01:22:58;;;;;;;22.75;9.25;;;;;;;;;;5017738;28;20045;-67
2024/02/17 01:25:25;;;;;;;28.67;10.40;;;;;;;;;;5016144;28;20072;-67
2024/02/17 01:27:51;;;;;;;23.73;9.65;;;;;;;;;;5016792;28;20141;-67
2024/02/17 01:30:17;;;;;;;23.40;8.88;;;;;;;;;;5019708;28;20056;-66
2024/02/17 01:32:44;;;;;;;28.15;9.07;;;;;;;;;;5021805;28;20132;-66
2024/02/17 01:35:10;;;;;;;28.02;8.63;;;;;;;;;;5020264;28;20425;-66
2024/02/17 01:37:36;;;;;;;27.58;8.60;;;;;;;;;;5021978;28;20133;-66
2024/02/17 01:40:03;;;;;;;20.85;10.32;;;;;;;;;;5020924;28;20045;-66
2024/02/17 01:42:29;;;;;;;25.58;9.07;;;;;;;;;;5018107;28;20520;-66
2024/02/17 01:44:55;;;;;;;27.35;8.95;;;;;;;;;;5021246;28;20127;-66
2024/02/17 01:47:21;;;;;;;23.65;8.80;;;;;;;;;;5017701;28;20076;-66
2024/02/17 01:49:48;;;;;;;22.33;8.00;;;;;;;;;;5025904;28;20463;-66
2024/02/17 01:52:15;;;;;;;25.08;10.50;;;;;;;;;;5027597;28;20049;-66
2024/02/17 01:54:42;;;;;;;31.80;9.48;;;;;;;;;;5033384;28;20140;-66
2024/02/17 01:57:08;;;;;;;26.02;9.45;;;;;;;;;;5028853;28;20048;-66
2024/02/17 01:59:35;;;;;;;28.92;9.85;;;;;;;;;;5026029;28;20092;-66
2024/02/17 02:02:01;;;;;;;30.80;11.00;;;;;;;;;;5018759;28;20045;-66
2024/02/17 02:04:28;;;;;;;31.70;10.02;;;;;;;;;;5022314;28;20056;-66
2024/02/17 02:06:54;;;;;;;34.95;10.48;;;;;;;;;;5020281;28;20053;-66
2024/02/17 02:09:23;;;;;;;27.60;11.05;;;;;;;;;;5022076;28;20037;-66
2024/02/17 02:11:51;;;;;;;32.58;9.85;;;;;;;;;;5020701;28;20052;-66
2024/02/17 02:14:18;;;;;;;26.90;10.10;;;;;;;;;;5022802;28;20060;-66
2024/02/17 02:16:44;;;;;;;35.28;9.48;;;;;;;;;;5021809;28;20041;-66
2024/02/17 02:19:11;;;;;;;32.97;9.80;;;;;;;;;;5021580;28;20129;-66
2024/02/17 02:21:38;;;;;;;31.65;9.85;;;;;;;;;;5021959;28;20052;-66
2024/02/17 02:24:05;;;;;;;28.70;10.15;;;;;;;;;;5023193;28;20119;-66
2024/02/17 02:26:31;;;;;;;23.40;9.88;;;;;;;;;;5021014;28;20045;-67
2024/02/17 02:28:58;;;;;;;30.30;9.70;;;;;;;;;;5020267;28;20477;-66
2024/02/17 02:31:25;;;;;;;26.90;10.07;;;;;;;;;;5017485;28;20068;-66
2024/02/17 02:33:52;;;;;;;29.05;10.00;;;;;;;;;;5008031;28;20517;-66
2024/02/17 02:36:20;;;;;;;29.30;8.55;;;;;;;;;;5023817;28;20072;-66
2024/02/17 02:38:47;;;;;;;29.30;11.55;;;;;;;;;;5023960;28;20041;-66
2024/02/17 02:41:13;;;;;;;25.52;9.93;;;;;;;;;;5022559;28;20045;-67
2024/02/17 02:43:40;;;;;;;20.65;9.25;;;;;;;;;;5022457;28;20052;-66
2024/02/17 02:46:06;;;;;;;29.23;9.25;;;;;;;;;;5017806;28;20041;-66
2024/02/17 02:48:33;;;;;;;23.98;9.57;;;;;;;;;;5025499;28;20125;-66
2024/02/17 02:50:59;;;;;;;27.02;9.27;;;;;;;;;;5024382;28;20060;-66
2024/02/17 02:53:26;;;;;;;21.13;9.23;;;;;;;;;;5023861;28;20036;-66
2024/02/17 02:55:52;;;;;;;22.33;8.73;;;;;;;;;;5022661;28;20401;-66
2024/02/17 02:58:18;;;;;;;30.35;10.27;;;;;;;;;;5023190;28;20053;-66
2024/02/17 03:00:45;;;;;;;24.58;9.00;;;;;;;;;;5020295;28;20060;-67
2024/02/17 03:03:11;;;;;;;29.40;8.68;;;;;;;;;;5018752;28;20095;-66
2024/02/17 03:05:37;;;;;;;27.55;9.23;;;;;;;;;;5019376;28;20049;-66
2024/02/17 03:08:04;;;;;;;23.85;8.65;;;;;;;;;;5021227;28;20092;-66
2024/02/17 03:10:31;;;;;;;16.70;7.38;;;;;;;;;;5024873;28;20069;-66
2024/02/17 03:12:57;;;;;;;17.83;7.15;;;;;;;;;;5034239;28;20128;-66
2024/02/17 03:15:23;;;;;;;25.05;7.43;;;;;;;;;;5018305;28;20077;-67
2024/02/17 03:17:51;;;;;;;18.67;5.50;;;;;;;;;;5018377;28;20371;-67
2024/02/17 03:20:18;;;;;;;13.68;6.32;;;;;;;;;;5017352;28;20472;-66
2024/02/17 03:22:44;;;;;;;19.58;7.57;;;;;;;;;;5019529;28;20117;-66
2024/02/17 03:25:10;;;;;;;15.18;4.97;;;;;;;;;;5019421;28;20532;-66
2024/02/17 03:27:37;;;;;;;11.40;4.38;;;;;;;;;;5019205;28;20500;-67
2024/02/17 03:30:09;;;;;;;19.88;7.53;;;;;;;;;;5019126;28;20536;-66
2024/02/17 03:32:35;;;;;;;24.45;8.07;;;;;;;;;;5018581;28;20531;-66
2024/02/17 03:35:05;;;;;;;19.92;8.10;;;;;;;;;;5020860;28;20120;-66
2024/02/17 03:37:31;;;;;;;17.67;7.47;;;;;;;;;;5040873;28;20038;-66
2024/02/17 03:39:59;;;;;;;30.80;9.57;;;;;;;;;;5028453;28;20093;-66
2024/02/17 03:42:25;;;;;;;19.15;7.80;;;;;;;;;;5018823;28;20045;-66
2024/02/17 03:44:51;;;;;;;17.75;7.85;;;;;;;;;;5016912;28;20770;-66
2024/02/17 03:47:18;;;;;;;16.40;7.50;;;;;;;;;;5021621;28;20041;-66
2024/02/17 03:49:44;;;;;;;14.75;7.40;;;;;;;;;;5020676;28;20041;-66
2024/02/17 03:52:10;;;;;;;11.30;5.00;;;;;;;;;;5017109;28;20111;-66
2024/02/17 03:54:37;;;;;;;12.20;5.18;;;;;;;;;;5019961;28;20116;-66
2024/02/17 03:57:04;;;;;;;11.10;4.63;;;;;;;;;;5017633;28;20405;-66
2024/02/17 03:59:30;;;;;;;8.68;3.60;;;;;;;;;;5021386;28;20037;-66
2024/02/17 04:01:59;;;;;;;9.18;3.40;;;;;;;;;;5016055;28;20044;-67
2024/02/17 04:04:25;;;;;;;11.38;3.50;;;;;;;;;;5019439;28;20460;-66
2024/02/17 04:06:51;;;;;;;7.95;3.60;;;;;;;;;;5028350;28;20120;-66
2024/02/17 04:09:18;;;;;;;11.48;4.28;;;;;;;;;;5019401;28;20140;-67
2024/02/17 04:11:44;;;;;;;11.68;4.53;;;;;;;;;;5020303;28;20049;-66
2024/02/17 04:14:10;;;;;;;9.45;4.70;;;;;;;;;;5017937;28;20053;-66
2024/02/17 04:16:36;;;;;;;12.35;4.97;;;;;;;;;;5024121;28;20052;-66
2024/02/17 04:19:03;;;;;;;16.38;6.07;;;;;;;;;;5027528;28;20071;-66
2024/02/17 04:21:29;;;;;;;12.90;4.88;;;;;;;;;;5024453;28;20120;-66
2024/02/17 04:23:55;;;;;;;14.40;5.07;;;;;;;;;;5020630;28;20124;-66
2024/02/17 04:26:21;;;;;;;10.68;3.88;;;;;;;;;;5019101;28;20077;-66
2024/02/17 04:28:47;;;;;;;9.63;3.80;;;;;;;;;;5020776;28;20041;-66
2024/02/17 04:31:14;;;;;;;12.43;3.88;;;;;;;;;;5020442;28;20062;-66
2024/02/17 04:33:40;;;;;;;8.85;4.20;;;;;;;;;;5022987;28;20402;-66
2024/02/17 04:36:07;;;;;;;8.02;3.35;;;;;;;;;;5021666;28;20077;-66
2024/02/17 04:38:33;;;;;;;6.15;2.63;;;;;;;;;;5026004;28;20051;-66
2024/02/17 04:41:00;;;;;;;8.02;2.40;;;;;;;;;;5024848;28;20068;-66
2024/02/17 04:43:26;;;;;;;7.32;2.55;;;;;;;;;;5027113;28;20041;-66
2024/02/17 04:45:52;;;;;;;7.25;2.20;;;;;;;;;;5016667;28;20068;-66
2024/02/17 04:48:18;;;;;;;7.75;2.03;;;;;;;;;;5020089;28;20107;-66
2024/02/17 04:50:45;;;;;;;7.03;2.40;;;;;;;;;;5020192;28;20053;-66
2024/02/17 04:53:11;;;;;;;9.90;2.50;;;;;;;;;;5018013;28;20072;-66
2024/02/17 04:55:37;;;;;;;11.27;1.80;;;;;;;;;;5022490;28;20029;-66
2024/02/17 04:58:03;;;;;;;5.35;1.50;;;;;;;;;;5019106;28;20085;-66
2024/02/17 05:00:30;;;;;;;5.22;1.80;;;;;;;;;;5019175;28;20049;-67
2024/02/17 05:02:56;;;;;;;8.48;2.42;;;;;;;;;;5020927;28;20038;-66
2024/02/17 05:05:22;;;;;;;7.80;2.10;;;;;;;;;;5018766;28;21607;-66
2024/02/17 05:07:49;;;;;;;7.20;2.22;;;;;;;;;;5020466;28;20046;-66
2024/02/17 05:10:15;;;;;;;13.52;3.20;;;;;;;;;;5018628;28;20145;-66
2024/02/17 05:12:41;;;;;;;9.65;2.00;;;;;;;;;;5018259;28;21712;-66
2024/02/17 05:15:08;;;;;;;11.50;1.88;;;;;;;;;;5025518;28;20180;-66
2024/02/17 05:17:35;;;;;;;9.40;1.75;;;;;;;;;;5019102;28;20438;-66
2024/02/17 05:20:01;;;;;;;6.13;1.80;;;;;;;;;;5019431;28;20453;-66
2024/02/17 05:22:28;;;;;;;8.90;2.22;;;;;;;;;;5017966;28;20342;-66
2024/02/17 05:24:54;;;;;;;8.43;1.50;;;;;;;;;;5016383;28;20072;-66
2024/02/17 05:27:20;;;;;;;5.80;1.50;;;;;;;;;;5017012;28;20041;-66
2024/02/17 05:29:46;;;;;;;7.13;2.20;;;;;;;;;;5020733;28;20038;-66
2024/02/17 05:32:12;;;;;;;9.50;2.03;;;;;;;;;;5017086;28;20048;-66
2024/02/17 05:34:39;;;;;;;7.85;2.08;;;;;;;;;;5019562;28;20056;-66
2024/02/17 05:37:06;;;;;;;8.40;2.08;;;;;;;;;;5021922;28;20045;-66
2024/02/17 05:39:33;;;;;;;8.95;1.80;;;;;;;;;;5016846;28;20129;-66
2024/02/17 05:42:00;;;;;;;6.70;1.98;;;;;;;;;;5016487;28;20834;-66
2024/02/17 05:44:26;;;;;;;8.18;1.80;;;;;;;;;;5021282;28;20133;-66
2024/02/17 05:46:52;;;;;;;7.90;1.65;;;;;;;;;;5023459;28;20038;-66
2024/02/17 05:49:21;;;;;;;7.55;2.80;;;;;;;;;;5020696;28;20049;-66
2024/02/17 05:51:49;;;;;;;5.88;2.38;;;;;;;;;;5015931;28;20045;-66
2024/02/17 05:54:16;;;;;;;8.48;2.15;;;;;;;;;;5017397;28;20141;-66
2024/02/17 05:56:43;;;;;;;7.22;1.88;;;;;;;;;;4998775;28;20128;-66
2024/02/17 05:59:09;;;;;;;8.38;2.10;;;;;;;;;;5018372;28;21258;-66
2024/02/17 06:01:35;;;;;;;5.85;1.90;;;;;;;;;;5016508;28;20172;-66
2024/02/17 06:04:01;;;;;;;6.43;2.05;;;;;;;;;;5016531;28;20597;-66
2024/02/17 06:06:27;;;;;;;6.82;2.20;;;;;;;;;;5019762;28;20041;-66
2024/02/17 06:08:54;;;;;;;15.75;2.58;;;;;;;;;;5022066;28;20446;-66
2024/02/17 06:11:20;;;;;;;12.00;2.60;;;;;;;;;;5019176;28;20049;-66
2024/02/17 06:13:46;;;;;;;10.65;2.70;;;;;;;;;;5022659;28;20042;-67
2024/02/17 06:16:13;;;;;;;10.50;2.00;;;;;;;;;;5023024;28;20053;-67
2024/02/17 06:21:25;;;;;;;9.57;2.55;;;;;;;;;;5022934;28;20405;-66
2024/02/17 06:23:52;;;;;;;9.90;1.92;;;;;;;;;;5019003;28;20162;-66
2024/02/17 06:26:20;;;;;;;8.73;2.05;;;;;;;;;;5018857;28;20053;-65
2024/02/17 06:28:47;;;;;;;9.35;1.65;;;;;;;;;;5021474;28;20304;-65
2024/02/17 06:31:13;;;;;;;11.20;2.05;;;;;;;;;;5022981;28;20045;-66
2024/02/17 06:33:40;;;;;;;11.85;2.05;;;;;;;;;;5024243;28;20057;-66
2024/02/17 06:36:06;;;;;;;14.15;5.28;;;;;;;;;;5024286;28;20128;-66
2024/02/17 06:38:33;;;;;;;10.82;2.13;;;;;;;;;;5024538;28;20481;-66
2024/02/17 06:40:59;;;;;;;14.23;2.25;;;;;;;;;;5023895;28;20037;-66
2024/02/17 06:43:26;;;;;;;7.90;3.70;;;;;;;;;;5025586;28;20088;-66
2024/02/17 06:45:52;;;;;;;9.45;2.00;;;;;;;;;;5023268;28;20045;-66
2024/02/17 06:48:18;;;;;;;10.57;2.67;;;;;;;;;;5022428;28;20063;-66
2024/02/17 06:50:44;;;;;;;11.13;3.05;;;;;;;;;;5031631;28;20041;-66
2024/02/17 06:53:10;;;;;;;8.68;2.10;;;;;;;;;;5032168;28;20385;-66
2024/02/17 06:55:36;;;;;;;14.15;2.67;;;;;;;;;;5028452;28;20047;-66
2024/02/17 06:58:03;;;;;;;8.15;2.53;;;;;;;;;;5032542;28;20121;-67
2024/02/17 07:00:30;;;;;;;9.68;2.17;;;;;;;;;;5027304;28;20184;-67
2024/02/17 07:02:57;;;;;;;11.02;2.40;;;;;;;;;;5027575;28;20149;-67
2024/02/17 07:05:23;;;;;;;8.15;2.45;;;;;;;;;;5016415;28;20413;-67
2024/02/17 07:07:49;;;;;;;7.78;2.10;;;;;;;;;;5026038;28;20042;-67
2024/02/17 07:10:15;;;;;;;7.05;1.42;;;;;;;;;;5026030;28;20077;-67
2024/02/17 07:12:41;;;;;;;9.85;2.30;;;;;;;;;;5014185;28;20496;-67
2024/02/17 07:15:08;;;;;;;4.82;1.52;;;;;;;;;;5012861;28;20105;-67
2024/02/17 07:17:34;;;;;;;8.63;2.58;;;;;;;;;;5012622;28;20041;-67
2024/02/17 07:20:00;;;;;;;7.78;1.40;;;;;;;;;;5013516;28;20060;-67
2024/02/17 07:22:26;;;;;;;6.00;1.20;;;;;;;;;;5013864;28;20046;-66
2024/02/17 07:24:53;;;;;;;7.47;1.50;;;;;;;;;;5012010;28;20040;-67
2024/02/17 07:27:20;;;;;;;7.72;1.48;;;;;;;;;;5008905;28;20077;-67
2024/02/17 07:29:46;;;;;;;8.93;1.90;;;;;;;;;;5010702;28;20057;-67
2024/02/17 07:32:14;;;;;;;9.55;1.95;;;;;;;;;;5011683;28;20513;-67
2024/02/17 07:34:43;;;;;;;6.63;1.98;;;;;;;;;;5016201;28;20046;-67
2024/02/17 07:37:09;;;;;;;6.03;1.80;;;;;;;;;;5027361;28;20046;-67
2024/02/17 07:39:37;;;;;;;13.57;1.85;;;;;;;;;;5022522;28;20037;-67
2024/02/17 07:42:06;;;;;;;9.07;1.58;;;;;;;;;;5021991;28;20069;-67
2024/02/17 07:44:32;;;;;;;8.27;1.52;;;;;;;;;;5024211;28;20053;-67
2024/02/17 07:46:59;;;;;;;6.35;1.40;;;;;;;;;;5022299;28;20041;-67
2024/02/17 07:49:25;;;;;;;11.82;1.67;;;;;;;;;;5022984;28;20303;-67
2024/02/17 07:51:51;;;;;;;9.32;1.73;;;;;;;;;;5022411;28;20079;-67
2024/02/17 07:54:17;;;;;;;7.07;1.40;;;;;;;;;;5019718;28;20091;-67
2024/02/17 07:56:43;;;;;;;7.78;1.48;;;;;;;;;;5029537;28;20079;-66
2024/02/17 07:59:10;;;;;;;8.82;1.50;;;;;;;;;;5023317;28;20065;-66
2024/02/17 08:01:36;;;;;;;8.52;1.70;;;;;;;;;;5023170;28;20110;-66
2024/02/17 08:04:02;;;;;;;10.55;1.38;;;;;;;;;;5022505;28;20064;-66
2024/02/17 08:06:28;;;;;;;8.05;1.17;;;;;;;;;;5024444;28;20041;-67
2024/02/17 08:08:54;;;;;;;9.43;1.30;;;;;;;;;;5027183;28;20509;-67
2024/02/17 08:11:21;;;;;;;5.53;0.90;;;;;;;;;;5026726;28;20109;-67
2024/02/17 08:13:47;;;;;;;6.97;0.98;;;;;;;;;;5026587;28;20437;-66
2024/02/17 08:16:14;;;;;;;6.50;1.10;;;;;;;;;;5024879;28;20057;-66
2024/02/17 08:18:42;;;;;;;16.08;2.00;;;;;;;;;;5025760;28;20045;-67
2024/02/17 08:21:09;;;;;;;7.10;1.38;;;;;;;;;;5022421;28;20478;-67
2024/02/17 08:23:36;;;;;;;9.82;1.23;;;;;;;;;;5020520;28;20046;-67
2024/02/17 08:26:02;;;;;;;10.02;1.58;;;;;;;;;;5026688;28;20480;-67
2024/02/17 08:28:28;;;;;;;8.38;3.55;;;;;;;;;;5025818;28;20049;-82
2024/02/17 08:30:55;;;;;;;7.30;1.30;;;;;;;;;;5025901;28;20048;-67
2024/02/17 08:33:21;;;;;;;8.48;1.70;;;;;;;;;;5029054;28;20217;-67
2024/02/17 08:35:49;;;;;;;8.75;1.60;;;;;;;;;;5026416;28;20086;-67
2024/02/17 08:38:16;;;;;;;10.23;1.45;;;;;;;;;;5024696;28;20049;-67
2024/02/17 08:40:43;;;;;;;6.95;1.40;;;;;;;;;;5025786;28;20065;-67
2024/02/17 08:43:09;;;;;;;6.53;1.17;;;;;;;;;;5026635;28;20088;-68
2024/02/17 08:45:36;;;;;;;7.05;1.30;;;;;;;;;;5028065;28;20163;-68
2024/02/17 08:48:02;;;;;;;7.95;1.60;;;;;;;;;;5042958;28;20060;-67
2024/02/17 08:50:28;;;;;;;8.45;1.30;;;;;;;;;;5049590;28;20057;-67
2024/02/17 08:52:54;;;;;;;10.38;1.77;;;;;;;;;;5021604;28;20045;-67
2024/02/17 08:55:20;;;;;;;7.70;1.55;;;;;;;;;;5044307;28;20116;-67
2024/02/17 08:57:47;;;;;;;12.48;1.60;;;;;;;;;;5027875;28;20056;-67
2024/02/17 09:00:14;;;;;;;15.00;1.83;;;;;;;;;;5001362;28;20195;-67
2024/02/17 09:02:40;;;;;;;9.27;1.63;;;;;;;;;;5046150;28;20029;-67
2024/02/17 09:05:06;;;;;;;11.73;1.48;;;;;;;;;;5030734;28;20057;-67
2024/02/17 09:07:33;;;;;;;7.97;1.75;;;;;;;;;;5007647;28;21675;-67
2024/02/17 09:09:59;;;;;;;9.07;1.25;;;;;;;;;;5031612;28;20076;-67
2024/02/17 09:12:26;;;;;;;5.32;1.30;;;;;;;;;;5030336;28;20138;-67
2024/02/17 09:14:52;;;;;;;6.40;1.00;;;;;;;;;;5046019;28;20049;-67
2024/02/17 09:17:18;;;;;;;7.43;2.25;;;;;;;;;;5044288;28;20780;-65
2024/02/17 09:19:45;;;;;;;6.43;1.70;;;;;;;;;;5042829;28;20037;-65
2024/02/17 09:22:13;;;;;;;7.13;1.27;;;;;;;;;;5026066;28;20045;-65
2024/02/17 09:24:39;;;;;;;6.60;1.30;;;;;;;;;;5044017;28;20162;-70
2024/02/17 09:27:06;;;;;;;9.07;2.03;;;;;;;;;;5038418;28;20104;-65
2024/02/17 09:29:32;;;;;;;7.30;1.83;;;;;;;;;;5022035;28;20045;-65
2024/02/17 09:31:59;;;;;;;9.65;1.10;;;;;;;;;;5022276;28;20045;-65
2024/02/17 09:34:28;;;;;;;10.30;1.23;;;;;;;;;;5021855;28;20454;-65
2024/02/17 09:36:54;;;;;;;10.82;1.05;;;;;;;;;;5017818;28;20495;-65
2024/02/17 09:39:21;;;;;;;3.63;0.88;;;;;;;;;;5021351;28;20041;-65
2024/02/17 09:41:47;;;;;;;5.55;1.08;;;;;;;;;;5023182;28;20046;-65
2024/02/17 09:44:13;;;;;;;6.38;1.05;;;;;;;;;;5021881;28;20651;-65
2024/02/17 09:46:39;;;;;;;6.07;1.10;;;;;;;;;;5016932;28;20403;-65
2024/02/17 09:49:06;;;;;;;7.32;1.35;;;;;;;;;;5024778;28;20493;-65
2024/02/17 09:51:33;;;;;;;7.60;1.15;;;;;;;;;;5024963;28;20041;-65
2024/02/17 09:54:00;;;;;;;6.78;0.98;;;;;;;;;;5022341;28;20042;-65
2024/02/17 09:56:26;;;;;;;3.95;1.10;;;;;;;;;;5024310;28;20052;-65
2024/02/17 09:58:53;;;;;;;4.88;1.20;;;;;;;;;;5024616;28;20033;-65
2024/02/17 10:01:20;;;;;;;6.28;1.08;;;;;;;;;;5039322;28;20058;-65
2024/02/17 10:03:47;;;;;;;8.63;1.13;;;;;;;;;;5023909;28;20106;-65
2024/02/17 10:06:15;;;;;;;6.82;0.98;;;;;;;;;;5023077;28;20045;-65
2024/02/17 10:08:42;;;;;;;7.97;1.13;;;;;;;;;;5015509;28;20078;-65
2024/02/17 10:11:10;;;;;;;7.97;1.45;;;;;;;;;;5022851;28;20049;-65
2024/02/17 10:13:37;;;;;;;7.72;1.10;;;;;;;;;;5000181;28;20089;-64
2024/02/17 10:16:07;;;;;;;9.45;1.58;;;;;;;;;;5014593;28;20053;-65
2024/02/17 10:18:33;;;;;;;6.10;1.20;;;;;;;;;;5024959;28;20512;-65
2024/02/17 10:20:59;;;;;;;8.27;1.27;;;;;;;;;;5025438;28;20097;-65
2024/02/17 10:23:26;;;;;;;9.48;1.52;;;;;;;;;;5021264;28;20407;-76
2024/02/17 10:25:52;;;;;;;7.47;1.15;;;;;;;;;;5018825;28;20046;-65
2024/02/17 10:28:19;;;;;;;11.48;1.63;;;;;;;;;;5021803;28;20061;-65
2024/02/17 10:30:45;;;;;;;6.38;1.33;;;;;;;;;;5021851;28;20053;-65
2024/02/17 10:33:13;;;;;;;11.30;1.83;;;;;;;;;;5019686;28;20402;-65
2024/02/17 10:35:42;;;;;;;9.50;1.52;;;;;;;;;;5019149;28;20171;-67
2024/02/17 10:38:09;;;;;;;11.70;2.25;;;;;;;;;;5015024;28;20049;-66
2024/02/17 10:40:36;;;;;;;8.63;1.20;;;;;;;;;;5021852;28;20045;-66
2024/02/17 10:43:02;;;;;;;5.75;1.17;;;;;;;;;;5019308;28;20060;-66
2024/02/17 10:45:29;;;;;;;6.80;1.50;;;;;;;;;;5019719;28;20105;-66
2024/02/17 10:48:00;;;;;;;11.52;2.10;;;;;;;;;;5018858;28;20052;-66
2024/02/17 10:50:26;;;;;;;11.43;1.75;;;;;;;;;;5015162;28;20118;-66
2024/02/17 10:52:59;;;;;;;7.97;1.45;;;;;;;;;;5017765;28;20486;-67
2024/02/17 10:55:27;;;;;;;8.63;1.42;;;;;;;;;;5020926;28;20116;-65
2024/02/17 10:57:56;;;;;;;6.90;1.13;;;;;;;;;;5023067;28;20045;-64
2024/02/17 11:00:23;;;;;;;9.95;1.30;;;;;;;;;;5021255;28;20041;-65
2024/02/17 11:02:50;;;;;;;9.65;1.40;;;;;;;;;;5021247;28;20049;-65
2024/02/17 11:05:19;;;;;;;10.82;1.50;;;;;;;;;;5019805;28;20401;-65
2024/02/17 11:07:46;;;;;;;4.85;1.02;;;;;;;;;;5022321;28;20133;-65
2024/02/17 11:10:13;;;;;;;8.20;1.55;;;;;;;;;;5023848;28;20431;-65
2024/02/17 11:12:40;;;;;;;7.43;1.92;;;;;;;;;;5019453;28;20429;-65
2024/02/17 11:15:08;;;;;;;6.03;1.25;;;;;;;;;;5005989;28;20060;-65
2024/02/17 11:17:36;;;;;;;10.90;1.42;;;;;;;;;;5018303;28;20121;-65
2024/02/17 11:20:06;;;;;;;9.05;1.88;;;;;;;;;;5020728;28;20417;-65
2024/02/17 11:22:34;;;;;;;6.07;1.45;;;;;;;;;;5023476;28;20033;-65
2024/02/17 11:25:01;;;;;;;9.55;1.52;;;;;;;;;;5036749;28;20042;-65
2024/02/17 11:27:27;;;;;;;10.98;1.63;;;;;;;;;;5012816;28;20046;-65
2024/02/17 11:29:57;;;;;;;5.80;1.25;;;;;;;;;;5019838;28;20053;-65
2024/02/17 11:32:26;;;;;;;8.68;1.33;;;;;;;;;;5027241;28;20049;-65
2024/02/17 11:34:52;;;;;;;8.52;1.75;;;;;;;;;;5028061;28;20049;-65
2024/02/17 11:37:21;;;;;;;6.35;1.20;;;;;;;;;;5028297;28;20042;-65
2024/02/17 11:39:48;;;;;;;8.57;1.45;;;;;;;;;;5026649;28;20045;-65
2024/02/17 11:42:17;;;;;;;5.90;1.45;;;;;;;;;;5026661;28;20065;-65
2024/02/17 11:44:45;;;;;;;8.15;1.95;;;;;;;;;;5026859;28;20070;-65
2024/02/17 11:47:12;;;;;;;7.15;1.52;;;;;;;;;;5029188;28;20382;-65
2024/02/17 11:49:56;;;;;;;5.82;1.23;;;;;;;;;;5029803;28;20033;-67
2024/02/17 11:52:23;;;;;;;10.00;2.22;;;;;;;;;;5030337;28;20052;-68
2024/02/17 11:54:51;;;;;;;6.60;1.45;;;;;;;;;;5031153;28;20037;-67
2024/02/17 11:57:18;;;;;;;7.10;1.40;;;;;;;;;;5030755;28;20080;-67
2024/02/17 11:59:46;;;;;;;9.63;1.70;;;;;;;;;;5023466;28;20096;-67
2024/02/17 12:02:12;;;;;;;9.10;1.98;;;;;;;;;;5028995;28;20178;-67
2024/02/17 12:04:39;;;;;;;11.70;2.75;;;;;;;;;;5033041;28;20055;-67
2024/02/17 12:07:05;;;;;;;7.40;1.75;;;;;;;;;;5027667;28;20053;-66
2024/02/17 12:09:33;;;;;;;9.07;1.55;;;;;;;;;;5025325;28;20059;-67
2024/02/17 12:11:59;;;;;;;5.90;1.20;;;;;;;;;;5024972;28;20049;-66
2024/02/17 12:14:25;;;;;;;9.63;1.73;;;;;;;;;;5027556;28;20397;-66
2024/02/17 12:16:52;;;;;;;11.90;1.67;;;;;;;;;;5028695;28;20055;-67
2024/02/17 12:19:18;;;;;;;6.40;1.63;;;;;;;;;;5027431;28;20478;-67
2024/02/17 12:21:45;;;;;;;6.88;1.50;;;;;;;;;;5025924;28;20106;-67
2024/02/17 12:24:11;;;;;;;7.80;1.73;;;;;;;;;;5025321;28;20073;-67
2024/02/17 12:26:38;;;;;;;9.70;1.88;;;;;;;;;;5028138;28;20049;-67
2024/02/17 12:29:06;;;;;;;9.27;1.90;;;;;;;;;;5025987;28;20393;-67
2024/02/17 12:31:32;;;;;;;9.90;2.97;;;;;;;;;;5027756;28;20045;-67
2024/02/17 12:33:58;;;;;;;9.48;2.10;;;;;;;;;;5027164;28;20034;-67
2024/02/17 12:36:24;;;;;;;6.72;1.30;;;;;;;;;;5027300;28;20108;-66
2024/02/17 12:39:04;;;;;;;13.73;2.13;;;;;;;;;;5027745;28;20049;-67
2024/02/17 12:41:30;;;;;;;9.63;2.15;;;;;;;;;;5027405;28;20095;-67
2024/02/17 12:43:56;;;;;;;6.28;1.33;;;;;;;;;;5025573;28;20333;-66
2024/02/17 12:46:25;;;;;;;8.73;1.42;;;;;;;;;;5024496;28;20041;-67
2024/02/17 12:48:52;;;;;;;8.43;1.50;;;;;;;;;;5031243;28;20049;-67
2024/02/17 12:51:20;;;;;;;5.50;1.60;;;;;;;;;;5028320;28;20044;-67
2024/02/17 12:53:47;;;;;;;12.68;1.90;;;;;;;;;;5014157;28;20049;-66
2024/02/17 12:56:15;;;;;;;7.88;1.52;;;;;;;;;;5016700;28;20048;-66
2024/02/17 12:58:41;;;;;;;6.53;1.67;;;;;;;;;;5025578;28;20127;-66
2024/02/17 13:01:07;;;;;;;6.38;1.60;;;;;;;;;;5037021;28;20060;-66
2024/02/17 13:03:33;;;;;;;8.32;1.65;;;;;;;;;;5029097;28;20103;-66
2024/02/17 13:06:02;;;;;;;8.68;1.60;;;;;;;;;;5039359;28;20382;-66
2024/02/17 13:08:29;;;;;;;6.47;1.95;;;;;;;;;;5033956;28;20059;-66
2024/02/17 13:10:56;;;;;;;9.75;2.35;;;;;;;;;;5037783;28;20042;-66
2024/02/17 13:13:23;;;;;;;6.95;1.65;;;;;;;;;;5040801;28;20056;-66
2024/02/17 13:15:49;;;;;;;12.48;2.22;;;;;;;;;;5021866;28;20041;-66
2024/02/17 13:18:15;;;;;;;8.77;2.00;;;;;;;;;;5024063;28;20055;-66
2024/02/17 13:20:41;;;;;;;11.82;1.90;;;;;;;;;;5038949;28;20050;-66
2024/02/17 13:23:07;;;;;;;6.53;1.48;;;;;;;;;;5030355;28;20432;-66
2024/02/17 13:25:34;;;;;;;6.78;1.40;;;;;;;;;;5036315;28;20044;-66
2024/02/17 13:28:01;;;;;;;7.60;1.98;;;;;;;;;;5038162;28;20052;-66
2024/02/17 13:30:27;;;;;;;10.50;3.20;;;;;;;;;;5037443;28;20045;-66
2024/02/17 13:32:54;;;;;;;6.47;1.85;;;;;;;;;;5041681;28;20045;-66
2024/02/17 13:35:20;;;;;;;7.07;1.75;;;;;;;;;;5040170;28;20041;-66
2024/02/17 13:37:47;;;;;;;8.00;2.33;;;;;;;;;;5035659;28;20044;-66
2024/02/17 13:40:13;;;;;;;8.65;2.42;;;;;;;;;;5038169;28;20104;-66
2024/02/17 13:42:40;;;;;;;9.52;3.05;;;;;;;;;;5036857;28;20081;-66
2024/02/17 13:45:07;;;;;;;13.85;2.95;;;;;;;;;;5035764;28;20107;-66
2024/02/17 13:47:40;;;;;;;10.70;2.90;;;;;;;;;;5042606;28;20052;-66
2024/02/17 13:50:08;;;;;;;9.35;2.72;;;;;;;;;;5028337;28;20044;-66
2024/02/17 13:52:35;;;;;;;7.93;2.72;;;;;;;;;;5035484;28;20128;-66
2024/02/17 13:55:01;;;;;;;7.43;2.80;;;;;;;;;;5035241;28;20041;-66
2024/02/17 13:57:28;;;;;;;10.05;3.40;;;;;;;;;;5033387;28;20040;-67
2024/02/17 13:59:55;;;;;;;7.63;2.70;;;;;;;;;;5045066;28;20045;-67
2024/02/17 14:02:22;;;;;;;14.55;3.95;;;;;;;;;;5034023;28;20103;-66
2024/02/17 14:04:48;;;;;;;7.50;3.22;;;;;;;;;;5035511;28;20053;-68
2024/02/17 14:07:14;;;;;;;7.05;2.92;;;;;;;;;;5020542;28;20451;-67
2024/02/17 14:09:41;;;;;;;11.90;3.45;;;;;;;;;;5022719;28;20122;-68
2024/02/17 14:12:09;;;;;;;7.20;3.47;;;;;;;;;;5018936;28;20223;-67
2024/02/17 14:14:35;;;;;;;7.70;3.75;;;;;;;;;;5018619;28;20168;-67
2024/02/17 14:17:01;;;;;;;10.63;3.83;;;;;;;;;;5015412;28;20045;-68
2024/02/17 14:19:27;;;;;;;12.38;3.63;;;;;;;;;;5011106;28;20033;-67
2024/02/17 14:21:54;;;;;;;12.20;3.78;;;;;;;;;;5021457;28;20045;-67
2024/02/17 14:24:20;;;;;;;10.60;4.00;;;;;;;;;;5016523;28;20474;-67
2024/02/17 14:26:46;;;;;;;8.65;3.72;;;;;;;;;;5016020;28;20053;-68
2024/02/17 14:29:13;;;;;;;10.25;4.18;;;;;;;;;;5014819;28;20070;-67
2024/02/17 14:31:43;;;;;;;8.77;3.63;;;;;;;;;;5014864;28;20141;-67
2024/02/17 14:34:09;;;;;;;6.25;3.90;;;;;;;;;;5015966;28;20085;-68
2024/02/17 14:36:35;;;;;;;11.50;4.07;;;;;;;;;;5014192;28;20099;-68